Time;durP1;ratioP1;P1;durP2;ratioP2;P2;SDS_P1;SDS_P2;PMS_P1;PMS_P2;Temp;Humidity;BMP_temperature;BMP_pressure;BME280_temperature;BME280_humidity;BME280_pressure;Samples;Min_cycle;Max_cycle;Signal;HPM_P1;HPM_P2
2023/01/07 00:01:44;;;;;;;2.03;1.07;;;7.50;99.90;;;;;;5008568;28;20486;-76
2023/01/07 00:04:12;;;;;;;1.43;1.33;;;7.50;99.90;;;;;;5008593;28;20521;-75
2023/01/07 00:06:40;;;;;;;3.83;2.33;;;7.40;99.90;;;;;;5004779;28;20462;-75
2023/01/07 00:09:12;;;;;;;1.37;1.00;;;7.40;99.90;;;;;;5006309;28;20516;-75
2023/01/07 00:11:41;;;;;;;1.80;1.70;;;7.40;99.90;;;;;;5010005;28;20440;-76
2023/01/07 00:14:09;;;;;;;1.20;1.10;;;7.30;99.90;;;;;;5006029;28;20462;-76
2023/01/07 00:16:37;;;;;;;1.47;1.30;;;7.30;99.90;;;;;;5008067;28;20571;-75
2023/01/07 00:19:07;;;;;;;5.13;1.80;;;7.40;99.90;;;;;;5006615;28;20461;-75
2023/01/07 00:21:35;;;;;;;1.30;1.20;;;7.30;99.90;;;;;;5009251;28;20458;-75
2023/01/07 00:24:03;;;;;;;1.33;1.20;;;7.30;99.90;;;;;;5005963;28;20449;-75
2023/01/07 00:26:34;;;;;;;1.80;1.07;;;7.30;99.90;;;;;;5011873;28;20448;-75
2023/01/07 00:29:01;;;;;;;1.38;1.13;;;7.30;99.90;;;;;;5009200;28;20513;-75
2023/01/07 00:31:29;;;;;;;2.70;1.47;;;7.20;99.90;;;;;;5012285;28;20207;-74
2023/01/07 00:34:08;;;;;;;1.20;1.00;;;7.30;99.90;;;;;;5006024;28;20923;-75
2023/01/07 00:36:40;;;;;;;3.20;1.23;;;7.20;99.90;;;;;;5009565;28;20494;-75
2023/01/07 00:39:10;;;;;;;1.67;1.57;;;7.20;99.90;;;;;;5008078;28;20776;-75
2023/01/07 00:41:37;;;;;;;1.47;1.27;;;7.20;99.90;;;;;;5003549;28;20485;-75
2023/01/07 00:44:05;;;;;;;1.80;1.70;;;7.30;99.90;;;;;;5017943;28;20451;-75
2023/01/07 00:46:32;;;;;;;1.47;1.33;;;7.20;99.90;;;;;;5013760;28;20834;-75
2023/01/07 00:49:00;;;;;;;3.30;2.33;;;7.30;99.90;;;;;;5005712;28;20477;-74
2023/01/07 00:51:27;;;;;;;1.70;1.60;;;7.40;99.90;;;;;;5007762;28;20544;-75
2023/01/07 00:53:55;;;;;;;2.27;2.10;;;7.30;99.90;;;;;;5005189;28;20463;-75
2023/01/07 00:56:22;;;;;;;2.28;1.58;;;7.20;99.90;;;;;;5006992;28;20953;-75
2023/01/07 00:58:49;;;;;;;2.60;2.40;;;7.20;99.90;;;;;;5013055;28;20207;-75
2023/01/07 01:01:16;;;;;;;2.40;2.20;;;7.10;99.90;;;;;;5011072;28;20262;-75
2023/01/07 01:03:43;;;;;;;3.60;3.07;;;7.10;99.90;;;;;;5006229;28;20469;-74
2023/01/07 01:06:14;;;;;;;3.33;3.00;;;7.10;99.90;;;;;;5007362;28;20898;-74
2023/01/07 01:08:42;;;;;;;4.37;3.97;;;7.20;99.90;;;;;;5010390;28;20902;-75
2023/01/07 01:11:12;;;;;;;4.47;3.17;;;7.10;99.90;;;;;;5006394;28;20468;-75
2023/01/07 01:13:40;;;;;;;3.90;2.63;;;7.20;99.90;;;;;;5013352;28;20974;-75
2023/01/07 01:16:12;;;;;;;2.97;2.60;;;7.20;99.90;;;;;;5009402;28;20579;-75
2023/01/07 01:18:39;;;;;;;3.10;2.70;;;7.20;99.90;;;;;;5004521;28;20473;-75
2023/01/07 01:21:08;;;;;;;2.10;1.90;;;7.20;99.90;;;;;;5006664;28;20462;-75
2023/01/07 01:23:35;;;;;;;2.33;2.13;;;7.20;99.90;;;;;;5006300;28;20447;-75
2023/01/07 01:26:04;;;;;;;2.33;2.13;;;7.20;99.90;;;;;;5008308;28;21000;-74
2023/01/07 01:28:32;;;;;;;2.70;2.50;;;7.30;99.90;;;;;;5011450;28;20459;-74
2023/01/07 01:30:59;;;;;;;4.23;3.03;;;7.30;99.90;;;;;;5005390;28;20540;-75
2023/01/07 01:33:26;;;;;;;3.77;3.40;;;7.20;99.90;;;;;;5007749;28;20461;-75
2023/01/07 01:35:53;;;;;;;3.30;2.33;;;7.20;99.90;;;;;;5005792;28;20832;-75
2023/01/07 01:38:20;;;;;;;4.00;2.90;;;7.20;99.90;;;;;;5007349;28;20480;-75
2023/01/07 01:40:47;;;;;;;4.17;2.53;;;7.10;99.90;;;;;;5015377;28;20445;-75
2023/01/07 01:43:29;;;;;;;2.03;1.90;;;7.10;99.90;;;;;;5009751;28;20882;-74
2023/01/07 01:46:00;;;;;;;3.13;2.50;;;7.10;99.90;;;;;;5007335;28;20445;-75
2023/01/07 01:48:27;;;;;;;5.00;2.43;;;7.20;99.90;;;;;;5008936;28;20527;-75
2023/01/07 01:50:55;;;;;;;2.43;2.23;;;7.20;99.90;;;;;;5006848;28;20477;-75
2023/01/07 01:53:25;;;;;;;2.65;1.55;;;7.20;99.90;;;;;;5005452;28;20520;-75
2023/01/07 01:55:58;;;;;;;2.93;1.80;;;7.20;99.90;;;;;;5008920;28;20282;-75
2023/01/07 01:58:32;;;;;;;1.73;1.60;;;7.20;99.90;;;;;;5008535;28;20996;-75
2023/01/07 02:01:00;;;;;;;4.07;2.10;;;7.10;99.90;;;;;;5001546;28;20548;-75
2023/01/07 02:03:29;;;;;;;2.23;2.03;;;7.10;99.90;;;;;;5007872;28;20817;-74
2023/01/07 02:05:56;;;;;;;2.40;2.17;;;7.10;99.90;;;;;;5004055;28;20511;-75
2023/01/07 02:08:24;;;;;;;2.60;2.13;;;7.10;99.90;;;;;;5010776;28;20536;-75
2023/01/07 02:11:05;;;;;;;24.67;2.77;;;7.10;99.90;;;;;;5011652;28;20450;-75
2023/01/07 02:13:43;;;;;;;1.93;1.77;;;7.20;99.90;;;;;;5005389;28;20544;-74
2023/01/07 02:16:18;;;;;;;3.60;1.70;;;7.30;99.90;;;;;;5009074;28;20493;-75
2023/01/07 02:19:04;;;;;;;2.40;2.20;;;7.20;99.90;;;;;;5006406;28;20484;-74
2023/01/07 02:21:42;;;;;;;2.53;2.30;;;7.20;99.90;;;;;;5006618;28;20494;-74
2023/01/07 02:24:53;;;;;;;2.53;2.20;;;7.20;99.90;;;;;;5011085;28;20445;-74
2023/01/07 02:27:51;;;;;;;4.57;2.03;;;7.20;99.90;;;;;;5007539;28;20461;-75
2023/01/07 02:30:48;;;;;;;2.00;1.80;;;7.20;99.90;;;;;;5007259;28;20485;-75
2023/01/07 02:33:36;;;;;;;2.47;2.03;;;7.20;99.90;;;;;;5008643;28;20922;-74
2023/01/07 02:36:29;;;;;;;2.93;2.73;;;7.10;99.90;;;;;;5005843;28;20517;-74
2023/01/07 02:39:18;;;;;;;2.23;2.03;;;7.20;99.90;;;;;;5011735;28;20458;-75
2023/01/07 02:41:51;;;;;;;2.00;1.90;;;7.10;99.90;;;;;;5005825;28;20513;-75
2023/01/07 02:44:29;;;;;;;2.40;2.10;;;7.10;99.90;;;;;;5010442;28;20454;-75
2023/01/07 02:47:04;;;;;;;1.90;1.80;;;7.10;99.90;;;;;;5009789;28;20493;-75
2023/01/07 02:49:32;;;;;;;2.40;2.20;;;7.20;99.90;;;;;;5009031;28;20459;-74
2023/01/07 02:52:17;;;;;;;2.10;1.90;;;7.20;99.90;;;;;;5011432;28;20525;-75
2023/01/07 02:54:45;;;;;;;2.43;2.23;;;7.10;99.90;;;;;;5009558;28;20479;-75
2023/01/07 02:57:51;;;;;;;3.20;2.60;;;7.00;99.90;;;;;;5009479;28;20619;-75
2023/01/07 03:00:36;;;;;;;1.83;1.53;;;7.00;99.90;;;;;;4988789;28;20459;-75
2023/01/07 03:03:15;;;;;;;2.67;1.77;;;7.00;99.90;;;;;;5005214;28;20767;-75
2023/01/07 03:05:54;;;;;;;2.53;1.53;;;7.00;99.90;;;;;;5010336;28;20467;-75
2023/01/07 03:08:35;;;;;;;1.93;1.77;;;7.00;99.90;;;;;;5016726;28;20438;-75
2023/01/07 03:11:04;;;;;;;2.40;2.20;;;7.00;99.90;;;;;;5006177;28;20482;-75
2023/01/07 03:13:38;;;;;;;2.70;2.50;;;7.00;99.90;;;;;;5008174;28;20581;-75
2023/01/07 03:16:09;;;;;;;3.23;2.20;;;7.00;99.90;;;;;;5007497;28;20518;-75
2023/01/07 03:18:40;;;;;;;2.17;1.90;;;7.00;99.90;;;;;;5014315;28;20531;-75
2023/01/07 03:21:13;;;;;;;6.00;2.80;;;7.10;99.90;;;;;;5011467;28;20954;-75
2023/01/07 03:23:44;;;;;;;3.87;3.57;;;7.10;99.90;;;;;;5008593;28;20478;-75
2023/01/07 03:26:12;;;;;;;2.53;2.33;;;7.00;99.90;;;;;;5007608;28;21104;-75
2023/01/07 03:28:42;;;;;;;1.93;1.73;;;7.00;99.90;;;;;;5009530;28;20871;-75
2023/01/07 03:31:14;;;;;;;2.08;1.95;;;7.10;99.90;;;;;;5011981;28;20500;-75
2023/01/07 03:33:47;;;;;;;2.67;2.47;;;7.20;99.90;;;;;;5009891;28;20208;-75
2023/01/07 03:36:19;;;;;;;3.53;2.90;;;7.20;99.90;;;;;;5017238;28;20902;-74
2023/01/07 03:38:48;;;;;;;2.90;2.70;;;7.10;99.90;;;;;;5007124;28;20473;-74
2023/01/07 03:43:56;;;;;;;2.80;2.00;;;7.10;99.90;;;;;;5007184;28;20558;-75
2023/01/07 03:46:23;;;;;;;2.43;2.03;;;7.10;99.90;;;;;;5010984;28;20455;-74
2023/01/07 03:48:50;;;;;;;3.53;2.08;;;7.00;99.90;;;;;;5012743;28;20560;-75
2023/01/07 03:51:18;;;;;;;2.33;2.00;;;7.00;99.90;;;;;;5009422;28;20235;-74
2023/01/07 03:53:45;;;;;;;2.33;2.13;;;7.10;99.90;;;;;;5007474;28;20707;-75
2023/01/07 03:56:12;;;;;;;1.60;1.50;;;7.00;99.90;;;;;;5009258;28;20515;-75
2023/01/07 03:58:39;;;;;;;1.40;1.30;;;7.00;99.90;;;;;;5006310;28;21046;-75
2023/01/07 04:01:06;;;;;;;4.60;1.63;;;6.90;99.90;;;;;;5008222;28;20509;-75
2023/01/07 04:03:33;;;;;;;2.20;1.83;;;6.90;99.90;;;;;;5012817;28;20601;-74
2023/01/07 04:06:00;;;;;;;2.20;1.97;;;6.90;99.90;;;;;;5008429;28;20443;-74
2023/01/07 04:08:29;;;;;;;1.80;1.67;;;6.90;99.90;;;;;;5013694;28;20484;-75
2023/01/07 04:10:55;;;;;;;3.37;1.50;;;6.90;99.90;;;;;;5007822;28;20568;-75
2023/01/07 04:13:23;;;;;;;3.83;2.10;;;6.90;99.90;;;;;;5007604;28;20966;-75
2023/01/07 04:15:50;;;;;;;2.00;1.67;;;6.80;99.90;;;;;;5012368;28;20929;-75
2023/01/07 04:18:17;;;;;;;2.63;1.37;;;6.80;99.90;;;;;;5012823;28;20494;-75
2023/01/07 04:20:46;;;;;;;5.40;1.13;;;6.80;99.90;;;;;;5008945;28;20451;-75
2023/01/07 04:23:13;;;;;;;1.03;0.93;;;6.80;99.90;;;;;;5009256;28;20933;-75
2023/01/07 04:25:41;;;;;;;1.80;1.70;;;6.90;99.90;;;;;;5009039;28;20475;-74
2023/01/07 04:28:08;;;;;;;1.00;1.00;;;6.90;99.90;;;;;;5003507;28;20451;-75
2023/01/07 04:30:37;;;;;;;4.30;1.20;;;6.90;99.90;;;;;;5008141;28;20455;-75
2023/01/07 04:33:04;;;;;;;1.33;1.07;;;7.00;99.90;;;;;;5011786;28;20451;-75
2023/01/07 04:35:31;;;;;;;1.07;0.97;;;7.00;99.90;;;;;;5010004;28;20447;-74
2023/01/07 04:37:59;;;;;;;1.60;1.50;;;6.90;99.90;;;;;;5005027;28;21026;-74
2023/01/07 04:40:26;;;;;;;2.50;1.10;;;6.90;99.90;;;;;;5007004;28;20501;-75
2023/01/07 04:42:54;;;;;;;0.90;0.90;;;6.90;99.90;;;;;;5011240;28;20512;-74
2023/01/07 04:45:21;;;;;;;1.00;0.90;;;6.90;99.90;;;;;;5006730;28;20548;-75
2023/01/07 04:47:48;;;;;;;1.10;1.00;;;6.90;99.90;;;;;;5014132;28;20447;-75
2023/01/07 04:50:15;;;;;;;1.37;0.90;;;6.90;99.90;;;;;;5008553;28;20967;-76
2023/01/07 04:52:42;;;;;;;2.17;0.80;;;6.90;99.90;;;;;;5011942;28;20546;-74
2023/01/07 04:55:10;;;;;;;3.13;1.30;;;6.90;99.90;;;;;;5009113;28;20458;-73
2023/01/07 04:57:37;;;;;;;1.77;1.20;;;6.90;99.90;;;;;;5007670;28;20505;-74
2023/01/07 05:00:08;;;;;;;0.93;0.80;;;6.80;99.90;;;;;;5006410;28;20504;-74
2023/01/07 05:02:35;;;;;;;1.40;0.80;;;6.80;99.90;;;;;;5015218;28;20532;-74
2023/01/07 05:05:02;;;;;;;1.40;1.07;;;6.90;99.90;;;;;;5006491;28;20470;-75
2023/01/07 05:07:29;;;;;;;1.40;1.27;;;6.90;99.90;;;;;;5008610;28;20458;-74
2023/01/07 05:09:56;;;;;;;1.80;1.20;;;6.90;99.90;;;;;;5006180;28;20501;-74
2023/01/07 05:12:23;;;;;;;1.20;1.10;;;6.90;99.90;;;;;;5007550;28;20526;-74
2023/01/07 05:14:50;;;;;;;1.20;1.10;;;6.90;99.90;;;;;;5010808;28;20450;-74
2023/01/07 05:17:18;;;;;;;1.73;1.10;;;6.90;99.90;;;;;;5013702;28;21003;-74
2023/01/07 05:19:45;;;;;;;1.53;0.90;;;6.90;99.90;;;;;;5007407;28;20769;-74
2023/01/07 05:22:12;;;;;;;1.10;0.70;;;6.90;99.90;;;;;;5008656;28;20528;-74
2023/01/07 05:24:39;;;;;;;0.77;0.77;;;7.00;99.90;;;;;;5005328;28;20204;-74
2023/01/07 05:27:06;;;;;;;1.03;0.87;;;7.10;99.90;;;;;;5009885;28;20439;-74
2023/01/07 05:29:33;;;;;;;9.40;1.93;;;7.00;99.90;;;;;;5010827;28;20441;-74
2023/01/07 05:32:00;;;;;;;1.07;0.93;;;7.00;99.90;;;;;;5008336;28;20462;-74
2023/01/07 05:34:28;;;;;;;5.30;2.30;;;7.10;99.90;;;;;;5008301;28;20742;-74
2023/01/07 05:36:55;;;;;;;1.80;1.67;;;6.90;99.90;;;;;;5006741;28;20529;-77
2023/01/07 05:39:22;;;;;;;1.70;1.20;;;6.90;99.90;;;;;;5007766;28;20235;-74
2023/01/07 05:41:49;;;;;;;2.00;1.80;;;6.90;99.90;;;;;;5005187;28;20818;-74
2023/01/07 05:44:16;;;;;;;2.30;2.10;;;6.90;99.90;;;;;;5015834;28;20481;-77
2023/01/07 05:46:43;;;;;;;5.20;1.97;;;6.70;99.90;;;;;;5007480;28;20490;-77
2023/01/07 05:49:10;;;;;;;2.27;1.80;;;6.70;99.90;;;;;;5009809;28;20914;-77
2023/01/07 05:51:39;;;;;;;3.30;2.20;;;6.60;99.90;;;;;;5016124;28;20923;-76
2023/01/07 05:54:06;;;;;;;2.17;2.03;;;6.50;99.90;;;;;;5013281;28;20467;-77
2023/01/07 05:56:33;;;;;;;2.50;1.90;;;6.40;99.90;;;;;;5015342;28;20509;-76
2023/01/07 05:59:00;;;;;;;4.47;3.70;;;6.40;99.90;;;;;;5015741;28;20449;-76
2023/01/07 06:01:27;;;;;;;3.78;3.25;;;6.40;99.90;;;;;;5010782;28;20517;-77
2023/01/07 06:03:54;;;;;;;3.23;2.93;;;6.30;99.90;;;;;;5015332;28;20290;-77
2023/01/07 06:06:21;;;;;;;4.67;4.27;;;6.30;99.90;;;;;;5008326;28;20964;-76
2023/01/07 06:08:49;;;;;;;3.60;3.30;;;6.30;99.90;;;;;;5011227;28;20497;-77
2023/01/07 06:11:16;;;;;;;4.00;3.50;;;6.30;99.90;;;;;;5014707;28;20503;-77
2023/01/07 06:13:43;;;;;;;3.72;3.42;;;6.30;99.90;;;;;;5011724;28;20528;-76
2023/01/07 06:16:12;;;;;;;5.15;4.65;;;6.20;99.90;;;;;;5013342;28;20227;-77
2023/01/07 06:18:39;;;;;;;6.00;3.70;;;6.20;99.90;;;;;;5012042;28;20289;-77
2023/01/07 06:21:06;;;;;;;5.82;5.20;;;6.30;99.90;;;;;;5008858;28;20890;-77
2023/01/07 06:23:33;;;;;;;6.00;5.40;;;6.20;99.90;;;;;;5019271;28;20701;-77
2023/01/07 06:26:01;;;;;;;6.67;5.97;;;6.20;99.90;;;;;;5012350;28;20449;-77
2023/01/07 06:28:28;;;;;;;6.50;5.90;;;6.30;99.90;;;;;;5014527;28;20516;-76
2023/01/07 06:30:55;;;;;;;6.37;5.73;;;6.40;99.90;;;;;;5010188;28;20469;-76
2023/01/07 06:33:22;;;;;;;7.95;6.50;;;6.30;99.90;;;;;;5013021;28;20481;-76
2023/01/07 06:35:50;;;;;;;7.70;7.00;;;6.30;99.90;;;;;;5014353;28;20208;-76
2023/01/07 06:38:17;;;;;;;7.60;6.07;;;6.20;99.90;;;;;;5009824;28;20517;-77
2023/01/07 06:40:44;;;;;;;10.13;6.43;;;6.20;99.90;;;;;;5017026;28;20793;-77
2023/01/07 06:43:12;;;;;;;7.20;6.50;;;6.10;99.90;;;;;;5032431;28;20486;-77
2023/01/07 06:45:39;;;;;;;10.57;7.57;;;6.00;99.90;;;;;;5023806;28;21107;-77
2023/01/07 06:48:06;;;;;;;10.60;9.57;;;6.00;99.90;;;;;;5029662;28;20934;-77
2023/01/07 06:50:33;;;;;;;9.80;8.70;;;5.90;99.90;;;;;;5025264;28;20465;-76
2023/01/07 06:53:00;;;;;;;9.27;7.50;;;5.90;99.90;;;;;;5023786;28;20480;-76
2023/01/07 06:55:27;;;;;;;10.20;9.20;;;5.90;99.90;;;;;;5029823;28;20469;-74
2023/01/07 06:57:54;;;;;;;13.27;11.80;;;6.00;99.90;;;;;;5022926;28;20514;-74
2023/01/07 07:00:22;;;;;;;9.67;8.73;;;6.00;99.90;;;;;;5027027;28;20553;-73
2023/01/07 07:02:49;;;;;;;11.37;9.27;;;5.90;99.90;;;;;;5024941;28;20925;-73
2023/01/07 07:05:16;;;;;;;10.47;9.47;;;5.70;99.90;;;;;;5026527;28;20494;-73
2023/01/07 07:07:43;;;;;;;11.23;8.73;;;5.50;99.90;;;;;;5033552;28;20832;-74
2023/01/07 07:10:10;;;;;;;12.23;8.53;;;5.50;99.90;;;;;;5026442;28;20620;-73
2023/01/07 07:12:38;;;;;;;10.20;9.00;;;5.50;99.90;;;;;;5020192;28;20506;-73
2023/01/07 07:15:07;;;;;;;10.80;9.80;;;5.40;99.90;;;;;;5023126;28;20477;-73
2023/01/07 07:17:35;;;;;;;9.70;8.80;;;5.40;99.90;;;;;;5028820;28;20995;-73
2023/01/07 07:20:03;;;;;;;9.20;8.20;;;5.40;99.90;;;;;;5015186;28;20527;-73
2023/01/07 07:22:30;;;;;;;8.83;7.30;;;5.40;99.90;;;;;;5029373;28;20481;-73
2023/01/07 07:24:57;;;;;;;10.83;9.73;;;5.40;99.90;;;;;;5013568;28;20466;-73
2023/01/07 07:27:23;;;;;;;8.10;6.85;;;5.40;99.90;;;;;;5026650;28;21156;-73
2023/01/07 07:29:51;;;;;;;8.73;7.93;;;5.40;99.90;;;;;;5010186;28;20261;-73
2023/01/07 07:32:17;;;;;;;9.30;8.50;;;5.60;99.90;;;;;;5014652;28;20474;-73
2023/01/07 07:34:46;;;;;;;8.73;7.90;;;5.60;99.90;;;;;;5012504;28;20489;-73
2023/01/07 07:37:13;;;;;;;9.90;8.87;;;5.70;99.90;;;;;;5019682;28;20520;-73
2023/01/07 07:39:40;;;;;;;9.40;8.50;;;5.60;99.90;;;;;;5010659;28;20491;-73
2023/01/07 07:42:07;;;;;;;9.33;7.50;;;5.70;99.90;;;;;;5008054;28;20500;-73
2023/01/07 07:44:34;;;;;;;9.70;8.73;;;5.80;99.90;;;;;;5007556;28;20942;-75
2023/01/07 07:47:01;;;;;;;8.47;7.60;;;5.80;99.90;;;;;;5006808;28;20468;-75
2023/01/07 07:49:28;;;;;;;9.70;7.60;;;5.90;99.90;;;;;;5009094;28;20532;-75
2023/01/07 07:51:56;;;;;;;9.43;7.23;;;6.00;99.90;;;;;;5009921;28;20495;-75
2023/01/07 07:54:23;;;;;;;7.27;6.60;;;6.10;99.90;;;;;;5010551;28;20492;-75
2023/01/07 07:56:51;;;;;;;7.27;6.63;;;6.10;99.90;;;;;;5008421;28;20493;-73
2023/01/07 07:59:17;;;;;;;9.50;8.40;;;6.20;99.90;;;;;;5009292;28;20474;-73
2023/01/07 08:01:45;;;;;;;12.47;9.10;;;6.20;99.90;;;;;;5012093;28;20567;-73
2023/01/07 08:04:11;;;;;;;12.03;10.93;;;6.30;99.90;;;;;;5007314;28;23100;-74
2023/01/07 08:06:38;;;;;;;9.83;8.93;;;6.30;99.90;;;;;;5010809;28;20490;-74
2023/01/07 08:09:07;;;;;;;6.30;5.43;;;6.30;99.90;;;;;;5008795;28;20493;-75
2023/01/07 08:11:34;;;;;;;7.63;6.37;;;6.30;99.90;;;;;;5010644;28;20502;-74
2023/01/07 08:14:01;;;;;;;8.53;7.73;;;6.30;99.90;;;;;;5007584;28;20987;-74
2023/01/07 08:16:28;;;;;;;5.73;4.87;;;6.40;99.90;;;;;;5010279;28;20536;-74
2023/01/07 08:18:55;;;;;;;7.90;5.67;;;6.50;99.90;;;;;;5009734;28;21960;-74
2023/01/07 08:21:22;;;;;;;7.23;5.77;;;6.60;99.90;;;;;;5011842;28;20466;-75
2023/01/07 08:23:49;;;;;;;7.13;5.90;;;6.60;99.90;;;;;;5007303;28;21099;-74
2023/01/07 08:26:17;;;;;;;6.00;5.50;;;6.60;99.90;;;;;;5008842;28;20505;-74
2023/01/07 08:28:44;;;;;;;6.65;6.07;;;6.60;99.90;;;;;;5013669;28;20459;-74
2023/01/07 08:31:11;;;;;;;9.00;8.10;;;6.70;99.90;;;;;;5006299;28;20206;-74
2023/01/07 08:33:38;;;;;;;5.60;4.87;;;6.80;99.90;;;;;;5006216;28;20508;-74
2023/01/07 08:36:08;;;;;;;4.40;4.00;;;6.90;99.90;;;;;;5008879;28;20462;-75
2023/01/07 08:38:35;;;;;;;9.53;8.53;;;6.90;99.90;;;;;;5012490;28;20540;-74
2023/01/07 08:41:02;;;;;;;6.00;5.40;;;6.90;99.90;;;;;;5019423;28;20971;-74
2023/01/07 08:43:30;;;;;;;6.80;6.17;;;7.00;99.90;;;;;;5016428;28;20526;-74
2023/01/07 08:45:57;;;;;;;3.70;3.40;;;7.00;99.90;;;;;;5011930;28;20496;-75
2023/01/07 08:48:24;;;;;;;5.30;4.80;;;7.10;99.90;;;;;;5012412;28;20516;-75
2023/01/07 08:50:53;;;;;;;7.10;6.20;;;7.10;99.90;;;;;;5007386;28;20543;-75
2023/01/07 08:53:20;;;;;;;7.67;7.00;;;7.20;99.90;;;;;;5008387;28;20594;-75
2023/01/07 08:55:47;;;;;;;4.67;4.33;;;7.20;99.90;;;;;;5018918;28;20552;-75
2023/01/07 08:58:14;;;;;;;7.50;5.90;;;7.30;99.90;;;;;;5021293;28;20490;-76
2023/01/07 09:00:43;;;;;;;6.33;5.73;;;7.30;99.90;;;;;;5018132;28;20477;-75
2023/01/07 09:03:09;;;;;;;7.00;6.43;;;7.40;99.90;;;;;;5009972;28;20459;-75
2023/01/07 09:05:36;;;;;;;5.30;4.80;;;7.50;99.90;;;;;;5025324;28;20476;-76
2023/01/07 09:08:04;;;;;;;4.63;4.23;;;7.60;99.90;;;;;;5017399;28;20932;-76
2023/01/07 09:10:31;;;;;;;4.43;4.00;;;7.60;99.90;;;;;;5024991;28;20454;-75
2023/01/07 09:12:58;;;;;;;4.90;4.40;;;7.60;99.90;;;;;;5018749;28;20950;-76
2023/01/07 09:15:25;;;;;;;5.40;3.80;;;7.70;99.90;;;;;;5022181;28;20458;-76
2023/01/07 09:17:53;;;;;;;4.43;3.73;;;7.70;99.90;;;;;;5013865;28;20533;-76
2023/01/07 09:20:21;;;;;;;6.20;4.57;;;7.80;99.90;;;;;;5018621;28;20469;-76
2023/01/07 09:22:48;;;;;;;5.40;4.90;;;7.80;99.90;;;;;;5016190;28;20442;-74
2023/01/07 09:25:15;;;;;;;3.60;3.30;;;7.90;99.90;;;;;;5013637;28;20489;-76
2023/01/07 09:27:42;;;;;;;6.70;4.97;;;7.90;99.90;;;;;;5023242;28;20508;-76
2023/01/07 09:30:10;;;;;;;4.23;3.77;;;8.00;99.90;;;;;;5020183;28;20458;-76
2023/01/07 09:32:37;;;;;;;3.13;2.83;;;8.10;99.90;;;;;;5023400;28;20454;-76
2023/01/07 09:35:07;;;;;;;4.70;4.20;;;8.20;99.90;;;;;;5016687;28;20555;-75
2023/01/07 09:37:34;;;;;;;4.53;4.03;;;8.30;99.90;;;;;;5007880;28;20838;-76
2023/01/07 09:40:01;;;;;;;2.90;2.70;;;8.40;99.90;;;;;;5017163;28;20470;-77
2023/01/07 09:42:36;;;;;;;2.83;2.63;;;8.30;99.90;;;;;;5016773;28;20568;-74
2023/01/07 09:45:15;;;;;;;2.97;2.70;;;8.50;99.90;;;;;;5020716;28;20461;-75
2023/01/07 09:47:43;;;;;;;3.70;3.37;;;8.50;99.90;;;;;;5026830;28;20842;-75
2023/01/07 09:50:18;;;;;;;4.00;3.67;;;8.60;99.90;;;;;;5018448;28;20550;-75
2023/01/07 09:52:50;;;;;;;3.93;3.40;;;8.50;99.90;;;;;;5011797;28;20877;-75
2023/01/07 09:55:23;;;;;;;4.07;3.67;;;8.60;99.90;;;;;;5011347;28;21006;-76
2023/01/07 09:57:50;;;;;;;5.33;4.13;;;8.70;99.90;;;;;;5014603;28;20551;-76
2023/01/07 10:00:20;;;;;;;3.47;3.23;;;8.80;99.90;;;;;;5016480;28;20987;-75
2023/01/07 10:03:03;;;;;;;3.73;3.43;;;8.90;99.90;;;;;;5014167;28;20461;-75
2023/01/07 10:05:40;;;;;;;6.30;3.60;;;9.00;99.90;;;;;;5016733;28;20494;-75
2023/01/07 10:08:20;;;;;;;3.60;3.40;;;9.00;99.90;;;;;;5010823;28;20717;-75
2023/01/07 10:10:55;;;;;;;4.13;3.70;;;9.10;99.90;;;;;;5013503;28;21154;-76
2023/01/07 10:13:49;;;;;;;4.07;3.63;;;9.10;99.90;;;;;;5010746;28;20494;-76
2023/01/07 10:16:23;;;;;;;3.83;3.53;;;9.10;99.90;;;;;;5016697;28;20469;-76
2023/01/07 10:19:00;;;;;;;4.50;2.93;;;9.20;99.90;;;;;;5025752;28;20586;-76
2023/01/07 10:21:40;;;;;;;5.10;4.70;;;9.30;99.90;;;;;;5022516;28;20891;-76
2023/01/07 10:24:16;;;;;;;5.43;2.87;;;9.40;99.90;;;;;;5016062;28;20489;-76
2023/01/07 10:26:47;;;;;;;4.10;3.70;;;9.40;99.90;;;;;;5017950;28;21022;-76
2023/01/07 10:29:19;;;;;;;3.73;3.00;;;9.30;99.90;;;;;;5013109;28;20462;-76
2023/01/07 10:31:48;;;;;;;3.50;3.20;;;9.40;99.90;;;;;;5013275;28;20562;-76
2023/01/07 10:34:19;;;;;;;3.63;3.40;;;9.40;99.90;;;;;;5012566;28;20887;-76
2023/01/07 10:36:57;;;;;;;3.57;3.27;;;9.40;99.90;;;;;;5013118;28;20493;-76
2023/01/07 10:39:31;;;;;;;3.47;3.17;;;9.40;99.90;;;;;;5010632;28;20485;-76
2023/01/07 10:42:06;;;;;;;4.50;4.07;;;9.30;99.90;;;;;;5031817;28;20966;-76
2023/01/07 10:44:51;;;;;;;3.78;3.40;;;9.60;99.90;;;;;;5016623;28;20961;-76
2023/01/07 10:47:33;;;;;;;2.83;2.63;;;9.70;99.90;;;;;;5013452;28;20266;-76
2023/01/07 10:50:20;;;;;;;3.30;2.63;;;9.70;99.90;;;;;;5022936;28;20445;-76
2023/01/07 10:52:58;;;;;;;2.57;2.30;;;9.70;99.90;;;;;;5022719;28;20490;-75
2023/01/07 10:55:37;;;;;;;2.40;2.10;;;9.80;99.90;;;;;;5024146;28;20907;-76
2023/01/07 10:58:04;;;;;;;2.10;1.90;;;9.70;99.90;;;;;;5022117;28;20582;-77
2023/01/07 11:00:32;;;;;;;3.37;3.07;;;9.70;99.90;;;;;;5025122;28;20917;-76
2023/01/07 11:03:00;;;;;;;2.17;2.07;;;9.70;99.90;;;;;;5029205;28;20465;-77
2023/01/07 11:05:32;;;;;;;1.70;1.23;;;9.80;99.90;;;;;;5013875;28;20997;-76
2023/01/07 11:08:03;;;;;;;1.57;1.30;;;9.70;99.90;;;;;;5013036;28;21021;-77
2023/01/07 11:10:33;;;;;;;1.50;1.40;;;9.70;99.90;;;;;;5014675;28;20494;-76
2023/01/07 11:13:03;;;;;;;1.20;1.10;;;9.70;99.90;;;;;;5027031;28;20494;-76
2023/01/07 11:15:34;;;;;;;1.30;1.00;;;9.80;99.90;;;;;;5022610;28;20861;-77
2023/01/07 11:18:03;;;;;;;1.52;1.42;;;9.80;99.90;;;;;;5020862;28;21166;-77
2023/01/07 11:20:46;;;;;;;2.57;1.40;;;9.80;99.90;;;;;;5022692;28;20260;-77
2023/01/07 11:23:32;;;;;;;1.63;1.03;;;9.80;99.90;;;;;;5018092;28;20479;-76
2023/01/07 11:26:12;;;;;;;1.43;1.33;;;9.90;99.90;;;;;;5015475;28;20457;-77
2023/01/07 11:28:43;;;;;;;1.53;1.20;;;10.00;99.90;;;;;;5020279;28;20549;-74
2023/01/07 11:31:10;;;;;;;1.00;0.93;;;10.00;99.90;;;;;;5012141;28;20547;-74
2023/01/07 11:33:40;;;;;;;1.80;1.20;;;10.00;99.90;;;;;;5010831;28;20447;-74
2023/01/07 11:36:08;;;;;;;1.20;1.00;;;10.00;99.90;;;;;;5005308;28;20466;-74
2023/01/07 11:38:38;;;;;;;2.00;1.07;;;9.80;99.90;;;;;;5010847;28;20517;-76
2023/01/07 11:41:07;;;;;;;1.30;1.20;;;9.90;99.90;;;;;;5014291;28;20554;-76
2023/01/07 11:43:35;;;;;;;1.20;1.10;;;9.90;99.90;;;;;;5008737;28;21012;-77
2023/01/07 11:46:04;;;;;;;2.27;1.63;;;9.90;99.90;;;;;;5009626;28;20462;-76
2023/01/07 11:48:32;;;;;;;1.30;1.20;;;10.00;99.90;;;;;;5012487;28;20497;-76
2023/01/07 11:51:03;;;;;;;3.20;1.83;;;9.90;99.90;;;;;;5010376;28;20498;-76
2023/01/07 11:53:36;;;;;;;2.23;0.90;;;9.90;99.90;;;;;;5018451;28;20209;-76
2023/01/07 11:56:08;;;;;;;1.00;0.90;;;9.90;99.90;;;;;;5018632;28;20830;-74
2023/01/07 11:58:37;;;;;;;2.53;2.20;;;10.10;99.90;;;;;;5011488;28;20580;-74
2023/01/07 12:01:15;;;;;;;1.03;0.90;;;10.00;99.90;;;;;;5019221;28;20520;-74
2023/01/07 12:03:44;;;;;;;1.20;1.10;;;9.90;99.90;;;;;;5022159;28;20485;-76
2023/01/07 12:06:20;;;;;;;7.67;6.20;;;10.00;99.90;;;;;;5019336;28;20453;-74
2023/01/07 12:08:54;;;;;;;3.00;2.23;;;9.90;99.90;;;;;;5022882;28;20512;-74
2023/01/07 12:11:31;;;;;;;34.73;22.03;;;10.00;99.90;;;;;;5018558;28;21143;-74
2023/01/07 12:14:04;;;;;;;8.83;6.17;;;9.90;99.90;;;;;;5012159;28;20562;-76
2023/01/07 12:16:31;;;;;;;14.20;7.40;;;10.00;99.90;;;;;;5014431;28;20937;-77
2023/01/07 12:19:11;;;;;;;32.70;19.80;;;10.00;99.90;;;;;;5014961;28;21257;-74
2023/01/07 12:21:48;;;;;;;16.10;9.57;;;10.10;99.90;;;;;;5021068;28;20519;-74
2023/01/07 12:24:38;;;;;;;25.37;16.17;;;10.00;99.90;;;;;;5016779;28;20462;-74
2023/01/07 12:27:22;;;;;;;15.53;9.00;;;10.00;99.90;;;;;;5012749;28;20499;-74
2023/01/07 12:30:04;;;;;;;25.83;14.67;;;10.00;99.90;;;;;;5011583;28;20490;-73
2023/01/07 12:32:41;;;;;;;17.03;9.33;;;10.00;99.90;;;;;;5012059;28;20813;-74
2023/01/07 12:35:14;;;;;;;39.30;21.63;;;10.00;99.90;;;;;;5010279;28;21312;-74
2023/01/07 12:37:46;;;;;;;39.80;23.30;;;10.00;99.90;;;;;;5016039;28;21012;-74
2023/01/07 12:40:23;;;;;;;8.90;5.60;;;10.00;99.90;;;;;;5006934;28;20574;-74
2023/01/07 12:42:56;;;;;;;3.30;3.00;;;9.90;99.90;;;;;;5010414;28;20496;-74
2023/01/07 12:45:28;;;;;;;2.97;2.67;;;9.80;99.90;;;;;;5009589;28;20499;-74
2023/01/07 12:48:01;;;;;;;1.10;1.10;;;9.80;99.90;;;;;;5009418;28;20929;-74
2023/01/07 12:50:34;;;;;;;0.97;0.97;;;9.70;99.90;;;;;;5007247;28;20457;-74
2023/01/07 12:53:05;;;;;;;0.70;0.70;;;9.70;99.90;;;;;;5018563;28;20528;-74
2023/01/07 12:55:36;;;;;;;0.63;0.63;;;9.70;99.90;;;;;;5008153;28;20471;-74
2023/01/07 12:58:15;;;;;;;0.87;0.80;;;9.70;99.90;;;;;;5005452;28;20461;-74
2023/01/07 13:00:49;;;;;;;0.80;0.80;;;9.70;99.90;;;;;;5012182;28;20544;-73
2023/01/07 13:03:29;;;;;;;1.10;0.87;;;9.80;99.90;;;;;;5008461;28;20533;-74
2023/01/07 13:06:01;;;;;;;0.60;0.60;;;9.80;99.90;;;;;;5009975;28;20474;-73
2023/01/07 13:08:37;;;;;;;0.93;0.80;;;9.80;99.90;;;;;;5007675;28;21141;-74
2023/01/07 13:11:14;;;;;;;1.10;0.90;;;9.80;99.90;;;;;;5010958;28;21049;-75
2023/01/07 13:13:49;;;;;;;0.97;0.60;;;9.90;99.90;;;;;;5011310;28;20464;-75
2023/01/07 13:16:16;;;;;;;0.80;0.80;;;9.90;99.90;;;;;;5006677;28;20460;-75